Date,TemperatureHighF,TemperatureAvgF,TemperatureLowF,DewpointHighF,DewpointAvgF,DewpointLowF,HumidityHigh,HumidityAvg,HumidityLow,PressureMaxIn,PressureMinIn,WindSpeedMaxMPH,WindSpeedAvgMPH,GustSpeedMaxMPH,PrecipitationSumIn
2013-1-1,44,42,38,30,29,24,68,60,53,29.97,29.85,19,4,19,0.00
2013-1-2,38,34,30,27,18,13,65,52,39,30.19,29.94,19,5,19,0.00
2013-1-3,40,32,28,22,14,-100,69,52,40,30.20,30.09,13,-22,13,0.00
2013-1-4,43,36,30,24,22,21,72,58,44,30.14,30.03,24,6,24,0.00
2013-1-5,45,38,33,31,24,21,73,58,44,30.32,30.07,17,3,17,0.00
2013-1-6,52,44,34,36,31,27,94,65,38,30.14,29.96,20,3,20,0.00
2013-1-7,47,41,34,31,27,-100,77,59,47,30.38,30.08,20,-6,20,0.00
2013-1-8,56,38,31,39,19,-100,89,66,41,30.37,30.30,12,-64,12,0.00
2013-1-9,50,43,34,44,35,-100,95,80,68,30.33,30.16,12,1,12,0.00
2013-1-10,54,47,42,37,31,28,70,54,38,30.54,30.30,16,3,16,0.00
2013-1-11,44,37,40,34,16,-100,75,59,59,30.45,30.29,6,-115,6,0.00
2013-1-12,56,48,43,49,46,43,100,91,50,30.11,30.04,6,1,8,0.00
2013-1-13,49,46,42,49,46,42,100,100,96,30.09,29.92,7,2,7,0.01
2013-1-14,58,49,42,56,39,-100,100,79,55,30.25,29.89,18,-38,18,0.08
2013-1-15,41,37,36,40,26,-100,99,83,72,30.29,30.11,13,-70,13,0.46
2013-1-16,42,21,35,41,-28,-100,100,51,96,30.11,29.79,11,-445,11,0.49
2013-1-17,45,42,40,42,32,27,100,67,52,30.07,29.91,18,4,18,0.02
2013-1-18,40,35,31,31,17,5,72,49,27,30.44,29.98,24,5,24,0.00
2013-1-19,58,42,30,30,26,14,79,53,32,30.37,29.89,17,3,17,0.00
2013-1-20,58,46,37,33,24,11,68,44,20,30.04,29.74,33,7,33,0.00
2013-1-21,41,32,30,30,-2,-100,77,44,40,30.06,29.76,25,-57,25,0.00
2013-1-22,30,14,17,12,-38,-100,46,23,28,30.25,29.87,32,-352,32,0.00
2013-1-23,25,11,22,8,-56,-100,55,15,29,30.29,30.11,18,-544,18,0.00
2013-1-24,27,22,17,15,8,-3,89,57,27,30.45,30.07,26,6,26,0.00
2013-1-25,25,20,18,20,5,-100,93,59,39,30.45,30.02,10,-19,10,0.00
2013-1-26,34,27,22,20,19,17,87,71,53,30.38,30.03,14,4,14,0.02
2013-1-27,39,31,25,27,21,17,84,67,41,30.54,30.38,11,2,11,0.01
2013-1-28,41,36,31,40,33,24,99,92,73,30.46,30.00,12,2,12,0.12
2013-1-29,59,47,36,50,44,36,100,89,69,30.08,29.94,11,1,11,0.00
2013-1-30,71,39,46,63,6,-100,100,64,75,29.93,29.17,27,-285,27,0.01
2013-1-31,58,32,31,54,-4,-100,85,37,37,29.86,29.09,37,-192,37,0.20
2013-2-1,33,27,21,27,11,2,95,50,33,30.32,29.78,33,8,33,0.00
2013-2-2,30,24,18,27,13,4,96,65,37,30.33,29.98,16,3,16,0.00
2013-2-3,35,30,26,30,26,17,97,85,56,29.97,29.78,20,3,20,0.02
2013-2-4,38,27,24,29,-1,-100,78,46,41,30.05,29.85,22,-110,22,0.00
2013-2-5,39,36,33,32,29,26,84,75,63,29.89,29.81,7,1,7,0.00
2013-2-6,43,38,34,32,27,21,86,65,48,30.31,29.88,24,5,24,0.00
2013-2-7,39,35,30,30,24,16,75,64,46,30.41,30.17,13,2,13,0.00
2013-2-8,43,37,35,41,27,-100,100,82,63,30.17,29.67,34,-39,34,0.17
2013-2-9,40,31,28,24,8,-100,63,48,39,30.33,29.82,36,-73,36,0.00
2013-2-10,41,26,26,31,-16,-100,77,35,26,30.44,30.22,13,-268,13,0.00
2013-2-11,54,22,38,52,-38,-100,98,39,58,30.21,29.62,14,-531,141,0.19
2013-2-12,55,48,40,37,30,27,63,51,37,29.93,29.74,25,5,25,0.00
2013-2-13,44,38,35,37,31,27,99,75,59,29.92,29.62,11,3,11,0.27
2013-2-14,51,38,33,36,23,-100,100,70,34,29.96,29.70,12,-60,12,0.00
2013-2-15,55,43,36,40,34,-100,96,76,53,29.98,29.84,18,-7,25,0.05
2013-2-16,39,36,34,37,31,16,100,81,49,29.96,29.76,16,4,16,0.04
2013-2-17,34,29,25,18,12,5,65,49,34,30.12,29.76,34,11,34,0.00
2013-2-18,44,31,21,29,11,4,80,45,23,30.32,30.12,28,5,28,0.00
2013-2-19,45,40,34,43,33,23,96,76,50,30.12,29.66,20,4,20,0.09
2013-2-20,39,32,26,24,15,10,59,50,43,30.09,29.79,27,9,27,0.00
2013-2-21,39,31,24,18,14,11,62,51,40,30.27,30.06,22,7,28,0.00
2013-2-22,35,32,30,32,24,17,96,71,55,30.35,30.18,12,3,12,0.01
2013-2-23,48,41,33,47,40,32,100,99,95,30.18,29.75,11,2,11,0.09
2013-2-24,51,42,34,43,32,22,100,71,39,30.05,29.73,28,8,28,0.00
2013-2-25,49,39,32,31,25,21,77,56,38,30.17,30.04,16,4,16,0.00
2013-2-26,44,36,34,43,24,-100,100,78,68,30.18,29.59,26,-73,26,0.46
2013-2-27,56,48,42,45,40,34,100,75,46,29.63,29.44,20,5,20,0.08
2013-2-28,48,44,41,39,31,24,85,61,40,29.66,29.57,22,6,22,0.01
2013-3-1,45,42,38,32,30,25,74,63,53,29.81,29.64,18,7,18,0.00
2013-3-2,38,36,33,27,23,21,67,60,51,29.82,29.74,21,7,21,0.00
2013-3-3,38,34,32,22,20,19,67,56,47,29.84,29.73,25,9,25,0.00
2013-3-4,42,35,28,20,18,15,59,50,39,29.96,29.84,29,9,29,0.00
2013-3-5,50,38,31,33,21,-100,74,52,28,30.03,29.79,16,-9,16,0.00
2013-3-6,42,38,34,37,35,29,100,89,66,29.92,29.59,33,8,33,0.57
2013-3-7,50,43,37,31,27,24,72,54,38,30.08,29.92,26,8,26,0.00
2013-3-8,49,43,36,29,26,22,67,51,42,30.19,30.05,33,10,33,0.00
2013-3-9,64,49,37,35,24,16,57,41,16,30.28,30.18,19,4,19,0.00
2013-3-10,60,48,39,40,29,16,84,51,19,30.29,30.18,17,3,17,0.00
2013-3-11,58,30,43,51,-10,-100,96,55,76,30.22,29.90,14,-364,14,0.00
2013-3-12,58,10,47,57,-75,-100,100,13,50,29.92,29.65,21,-802,21,0.38
2013-3-13,50,12,37,32,-73,-100,78,11,27,29.98,29.83,26,-713,26,0.00
2013-3-14,44,25,33,19,-30,-100,54,23,26,30.04,29.94,32,-337,32,0.00
2013-3-15,56,34,32,33,-13,-100,62,29,28,30.02,29.71,21,-273,21,0.00
2013-3-16,51,24,39,39,-28,-100,82,37,51,29.88,29.61,17,-457,17,0.00
2013-3-17,50,26,36,65,-19,-100,87,37,50,30.22,29.87,10,-376,11,0.00
2013-3-18,50,26,32,50,-11,-100,100,53,1,30.28,29.82,14,-316,14,0.33
2013-3-19,58,35,32,39,1,-100,100,31,1,29.85,29.65,33,-189,33,0.00
2013-3-20,52,44,35,24,17,12,54,36,21,29.93,29.71,24,6,24,0.00
2013-3-21,44,36,30,28,15,6,77,44,28,29.83,29.68,27,8,27,0.00
2013-3-22,45,36,28,20,17,10,59,46,33,29.94,29.81,29,7,29,0.00
2013-3-23,52,41,31,24,22,20,69,49,30,29.96,29.85,24,6,24,0.00
2013-3-24,43,40,35,35,24,21,91,55,42,29.94,29.62,14,3,14,0.00
2013-3-25,37,36,33,37,34,32,100,96,84,29.63,29.46,11,3,11,0.53
2013-3-26,52,42,34,37,31,21,97,69,31,29.90,29.63,22,6,22,0.00
2013-3-27,51,44,40,36,29,25,77,56,37,30.04,29.90,32,9,32,0.01
2013-3-28,50,44,38,34,30,24,75,59,36,30.15,30.02,24,7,24,0.00
2013-3-29,56,49,43,32,28,24,60,45,31,30.18,30.07,22,6,22,0.00
2013-3-30,62,52,42,34,29,18,67,44,19,30.17,30.05,13,2,13,0.00
2013-3-31,56,48,44,50,40,29,100,74,48,30.08,29.72,7,2,16,0.00
2013-4-1,65,51,43,48,38,16,100,64,33,29.92,29.65,31,7,31,0.00
2013-4-2,48,42,36,19,15,12,48,34,24,30.11,29.93,26,7,26,0.00
2013-4-3,50,42,34,20,15,8,54,36,19,30.32,30.11,26,7,26,0.00
2013-4-4,48,41,31,33,19,12,71,42,26,30.37,30.05,12,3,13,0.00
2013-4-5,66,51,39,39,30,19,97,55,20,30.05,29.74,24,5,24,0.11
2013-4-6,53,47,40,37,21,13,70,37,22,30.28,29.98,20,5,20,0.00
2013-4-7,66,53,42,47,40,32,85,63,44,30.24,29.92,18,4,18,0.00
2013-4-8,75,65,54,56,49,44,76,58,39,30.02,29.90,16,2,16,0.00
2013-4-9,88,74,64,57,54,51,68,52,30,30.00,29.85,21,4,21,0.00
2013-4-10,93,79,65,60,56,53,71,47,27,29.89,29.69,21,4,21,0.00
2013-4-11,84,69,55,63,59,53,95,72,45,29.84,29.71,22,4,22,0.00
2013-4-12,62,55,51,59,54,51,100,97,90,29.80,29.55,18,5,18,0.46
2013-4-13,69,56,47,52,44,36,98,66,33,29.90,29.71,22,4,22,0.00
2013-4-14,68,58,48,49,39,32,82,51,27,30.08,29.90,21,4,21,0.00
2013-4-15,63,58,54,51,49,46,86,72,56,30.25,30.08,16,4,16,0.00
2013-4-16,74,62,54,60,54,50,88,77,59,30.27,30.06,17,3,17,0.00
2013-4-17,75,66,60,63,59,56,96,81,58,30.15,30.05,16,2,17,0.00
2013-4-18,74,64,58,64,58,53,100,84,66,30.19,29.97,21,5,21,0.06
2013-4-19,76,66,55,68,63,51,100,89,70,29.96,29.54,26,4,26,0.56
2013-4-20,60,54,47,54,33,25,97,50,27,30.28,29.71,25,8,25,0.08
2013-4-21,55,48,41,38,26,19,70,42,24,30.55,30.28,20,4,20,0.00
2013-4-22,57,49,41,40,36,34,75,61,44,30.54,30.37,19,5,19,0.00
2013-4-23,63,53,46,47,42,40,85,69,43,30.36,30.08,11,4,14,0.00
2013-4-24,73,60,48,60,53,46,97,78,58,30.08,29.73,31,4,31,0.00
2013-4-25,68,57,47,52,34,25,72,45,21,30.24,29.90,31,6,31,0.00
2013-4-26,68,58,50,40,33,25,64,40,22,30.39,30.24,16,4,16,0.00
2013-4-27,70,60,48,46,36,23,70,44,19,30.38,30.23,12,2,12,0.00
2013-4-28,70,60,50,48,42,32,84,53,26,30.24,30.10,17,3,17,0.00
2013-4-29,60,57,54,59,55,41,100,95,51,30.11,30.01,13,3,13,0.22
2013-4-30,64,58,55,58,54,38,100,87,50,30.24,30.05,14,3,14,0.15
2013-5-1,72,60,50,52,40,34,77,49,27,30.38,30.24,18,4,18,0.00
2013-5-2,70,60,50,50,47,44,91,65,43,30.39,30.26,13,3,13,0.00
2013-5-3,66,58,51,50,46,42,90,64,43,30.34,30.26,16,4,16,0.00
2013-5-4,69,58,48,48,45,39,89,65,42,30.29,30.13,17,4,17,0.00
2013-5-5,64,55,47,50,44,40,82,67,51,30.20,30.10,12,4,14,0.00
2013-5-6,64,57,49,60,52,44,94,86,78,30.14,30.02,16,4,16,0.00
2013-5-7,67,61,58,65,61,58,100,98,90,30.04,29.90,19,6,19,0.58
2013-5-8,71,63,59,61,59,54,99,88,66,29.95,29.88,16,3,16,0.17
2013-5-9,77,65,55,61,58,55,100,78,52,29.92,29.86,14,3,14,0.00
2013-5-10,86,72,60,66,60,57,100,70,42,29.95,29.80,29,3,29,0.43
2013-5-11,81,68,64,68,65,59,100,91,53,29.86,29.65,19,3,19,0.22
2013-5-12,65,61,53,64,40,24,100,52,24,29.97,29.67,31,8,31,0.00
2013-5-13,60,53,46,37,28,20,68,40,22,30.11,29.97,28,7,28,0.00
2013-5-14,63,54,42,45,31,25,65,42,27,30.15,29.99,20,4,20,0.00
2013-5-15,80,66,57,68,56,44,91,70,53,30.01,29.63,14,3,14,0.03
2013-5-16,83,76,70,68,62,59,86,64,52,29.83,29.66,28,4,28,0.01
2013-5-17,82,74,64,60,51,37,83,48,25,30.09,29.84,14,4,14,0.00
2013-5-18,70,65,60,61,56,48,100,74,49,30.19,30.09,14,4,14,0.01
2013-5-19,72,65,60,67,64,60,100,96,83,30.17,30.05,10,2,10,0.01
2013-5-20,82,72,66,71,68,65,100,87,65,30.07,29.92,12,2,12,0.00
2013-5-21,87,76,68,73,70,68,100,83,58,29.94,29.81,11,2,11,0.00
2013-5-22,88,79,70,74,72,65,100,81,61,29.86,29.77,18,4,18,0.00
2013-5-23,82,74,65,74,69,63,100,85,66,29.84,29.70,19,3,19,0.84
2013-5-24,66,59,51,66,52,35,100,78,54,30.07,29.66,27,9,27,0.04
2013-5-25,68,57,46,37,35,32,69,46,28,30.08,29.99,29,10,29,0.00
2013-5-26,74,62,51,43,37,33,60,41,24,30.14,30.05,24,6,24,0.00
2013-5-27,73,66,55,51,42,31,59,42,26,30.23,30.11,13,3,13,0.00
2013-5-28,77,69,62,70,62,50,100,80,57,30.14,30.01,11,2,11,0.31
2013-5-29,92,79,67,72,69,64,100,74,42,30.05,29.99,17,3,17,0.00
2013-5-30,93,83,74,73,69,67,81,65,47,30.11,30.03,12,3,12,0.00
2013-5-31,94,84,72,72,67,58,86,60,34,30.09,29.95,20,3,20,0.00
2013-6-1,97,84,73,72,68,65,80,61,40,29.98,29.84,14,2,14,0.00
2013-6-2,88,79,70,74,69,66,99,73,58,29.85,29.77,20,4,20,0.21
2013-6-3,83,74,68,72,68,58,100,82,50,29.87,29.75,21,3,21,0.52
2013-6-4,79,71,62,58,47,40,66,45,28,30.06,29.87,17,5,17,0.00
2013-6-5,80,72,62,60,53,46,76,54,34,30.13,30.00,14,3,14,0.00
2013-6-6,75,70,67,66,61,54,93,73,59,30.04,29.83,16,3,16,0.12
2013-6-7,71,69,67,71,69,65,100,99,91,29.83,29.52,18,4,18,1.79
2013-6-8,83,73,66,66,64,61,99,76,50,30.03,29.60,17,4,17,0.00
2013-6-9,83,76,69,71,64,57,86,69,46,30.14,30.03,12,2,12,0.00
2013-6-10,80,74,70,76,73,68,100,97,85,30.06,29.73,17,3,17,2.22
2013-6-11,86,76,68,71,68,64,100,78,53,29.77,29.69,28,6,28,0.01
2013-6-12,89,79,69,74,68,66,90,70,49,29.80,29.72,21,4,21,0.00
2013-6-13,87,77,72,74,71,67,100,82,53,29.76,29.44,25,4,25,0.30
2013-6-14,81,71,60,63,56,50,93,63,35,29.89,29.49,15,7,27,0.04
2013-6-15,84,75,65,60,57,50,80,55,33,30.00,29.90,18,4,18,0.00
2013-6-16,76,73,69,69,64,59,79,74,66,29.96,29.77,3,1,3,0.00